Time;durP1;ratioP1;P1;durP2;ratioP2;P2;SDS_P1;SDS_P2;PMS_P1;PMS_P2;Temp;Humidity;BMP_temperature;BMP_pressure;BME280_temperature;BME280_humidity;BME280_pressure;Samples;Min_cycle;Max_cycle;Signal;HPM_P1;HPM_P2
2022/09/11 00:01:12;;;;;;;0.40;0.40;;;14.50;99.90;;;;;;5049529;28;20401;-80
2022/09/11 00:03:39;;;;;;;0.45;0.45;;;14.40;99.90;;;;;;5050762;28;20144;-80
2022/09/11 00:06:08;;;;;;;0.40;0.40;;;14.50;99.90;;;;;;5050596;28;20150;-80
2022/09/11 00:08:34;;;;;;;0.43;0.43;;;14.50;99.90;;;;;;5046880;28;20137;-80
2022/09/11 00:11:08;;;;;;;0.50;0.50;;;14.50;99.90;;;;;;5062489;28;20364;-80
2022/09/11 00:13:35;;;;;;;0.50;0.50;;;14.50;99.90;;;;;;5044757;28;20043;-80
2022/09/11 00:16:04;;;;;;;0.50;0.50;;;14.50;99.90;;;;;;5065063;28;20079;-81
2022/09/11 00:18:32;;;;;;;0.50;0.50;;;14.60;99.90;;;;;;5064073;28;20043;-80
2022/09/11 00:20:58;;;;;;;0.50;0.50;;;14.60;99.90;;;;;;5062114;28;20097;-80
2022/09/11 00:23:25;;;;;;;0.40;0.40;;;14.60;99.90;;;;;;5059490;28;20053;-80
2022/09/11 00:25:51;;;;;;;0.50;0.50;;;14.60;99.90;;;;;;5046541;28;20049;-81
2022/09/11 00:28:20;;;;;;;0.50;0.50;;;14.60;99.90;;;;;;5036819;28;20039;-80
2022/09/11 00:30:55;;;;;;;0.50;0.50;;;14.50;99.90;;;;;;5042722;28;20146;-80
2022/09/11 00:33:21;;;;;;;0.40;0.40;;;14.60;99.90;;;;;;5058862;28;20040;-81
2022/09/11 00:35:57;;;;;;;0.40;0.40;;;14.50;99.90;;;;;;5053439;28;20051;-81
2022/09/11 00:38:28;;;;;;;0.47;0.47;;;14.50;99.90;;;;;;5043923;28;20090;-80
2022/09/11 00:40:56;;;;;;;0.50;0.50;;;14.40;99.90;;;;;;5075412;28;20055;-81
2022/09/11 00:43:22;;;;;;;0.50;0.50;;;14.40;99.90;;;;;;5078098;28;20051;-81
2022/09/11 00:45:58;;;;;;;0.50;0.50;;;14.40;99.90;;;;;;5059580;28;20159;-80
2022/09/11 00:48:28;;;;;;;0.50;0.50;;;14.30;99.90;;;;;;5077094;28;20802;-80
2022/09/11 00:50:56;;;;;;;0.40;0.40;;;14.30;99.90;;;;;;5075549;28;20044;-80
2022/09/11 00:53:25;;;;;;;0.47;0.47;;;14.30;99.90;;;;;;5078862;27;20049;-81
2022/09/11 00:55:57;;;;;;;0.50;0.50;;;14.40;99.90;;;;;;5080101;27;20055;-80
2022/09/11 00:58:27;;;;;;;0.50;0.50;;;14.30;99.90;;;;;;5079867;27;20050;-81
2022/09/11 01:00:55;;;;;;;0.50;0.50;;;14.20;99.90;;;;;;5078212;27;20051;-81
2022/09/11 01:03:22;;;;;;;0.45;0.45;;;14.20;99.90;;;;;;5096720;27;20111;-81
2022/09/11 01:05:48;;;;;;;0.40;0.40;;;14.20;99.90;;;;;;5062299;27;20043;-81
2022/09/11 01:08:14;;;;;;;0.50;0.50;;;14.20;99.90;;;;;;5064603;27;20043;-81
2022/09/11 01:11:08;;;;;;;0.40;0.40;;;14.20;99.90;;;;;;5081117;27;20101;-81
2022/09/11 01:13:46;;;;;;;0.50;0.50;;;14.20;99.90;;;;;;5073959;27;20587;-81
2022/09/11 01:16:38;;;;;;;0.50;0.50;;;14.10;99.90;;;;;;5081478;27;20070;-81
2022/09/11 01:19:27;;;;;;;0.50;0.50;;;14.10;99.90;;;;;;5088093;27;20624;-81
2022/09/11 01:22:02;;;;;;;0.40;0.40;;;14.10;99.90;;;;;;5066038;27;20066;-81
2022/09/11 01:24:28;;;;;;;0.50;0.50;;;14.10;99.90;;;;;;5098003;27;20534;-81
2022/09/11 01:27:28;;;;;;;0.50;0.50;;;14.10;99.90;;;;;;5063497;27;20049;-81
2022/09/11 01:30:04;;;;;;;0.50;0.50;;;14.00;99.90;;;;;;5079507;27;20080;-80
2022/09/11 01:32:55;;;;;;;0.47;0.47;;;14.10;99.90;;;;;;5078940;28;20043;-81
2022/09/11 01:35:41;;;;;;;0.50;0.50;;;14.00;99.90;;;;;;5080307;27;20047;-81
2022/09/11 01:38:28;;;;;;;0.45;0.45;;;13.90;99.90;;;;;;5081066;28;20050;-81
2022/09/11 01:41:00;;;;;;;0.50;0.50;;;13.80;99.90;;;;;;5079683;28;20845;-81
2022/09/11 01:43:29;;;;;;;0.43;0.43;;;13.90;99.90;;;;;;5081007;28;20055;-81
2022/09/11 01:45:58;;;;;;;0.50;0.50;;;13.90;99.90;;;;;;5082523;27;20883;-81
2022/09/11 01:48:31;;;;;;;0.50;0.50;;;13.90;99.90;;;;;;5083671;27;20046;-81
2022/09/11 01:50:58;;;;;;;0.50;0.50;;;13.90;99.90;;;;;;5079571;27;20043;-81
2022/09/11 01:53:31;;;;;;;0.50;0.50;;;13.90;99.90;;;;;;5085234;27;20036;-81
2022/09/11 01:56:23;;;;;;;0.50;0.50;;;13.90;99.90;;;;;;5087190;27;20143;-81
2022/09/11 01:58:54;;;;;;;0.45;0.45;;;13.90;99.90;;;;;;5072126;27;20063;-81
2022/09/11 02:01:27;;;;;;;0.60;0.60;;;13.90;99.90;;;;;;5082502;27;20055;-81
2022/09/11 02:04:20;;;;;;;0.50;0.50;;;14.00;99.90;;;;;;5093531;27;20828;-81
2022/09/11 02:06:58;;;;;;;0.50;0.50;;;14.00;99.90;;;;;;5083518;27;20051;-81
2022/09/11 02:09:30;;;;;;;0.50;0.50;;;14.00;99.90;;;;;;5086287;27;20100;-80
2022/09/11 02:11:59;;;;;;;0.50;0.50;;;14.00;99.90;;;;;;5083543;27;20058;-81
2022/09/11 02:14:38;;;;;;;0.50;0.50;;;13.90;99.90;;;;;;5103186;27;20118;-81
2022/09/11 02:17:34;;;;;;;0.40;0.40;;;13.90;99.90;;;;;;5085558;27;20055;-81
2022/09/11 02:20:00;;;;;;;0.40;0.40;;;13.80;99.90;;;;;;5092574;27;20503;-81
2022/09/11 02:22:26;;;;;;;0.50;0.50;;;13.90;99.90;;;;;;5081468;27;20046;-81
2022/09/11 02:24:52;;;;;;;0.50;0.50;;;13.80;99.90;;;;;;5069014;27;20043;-81
2022/09/11 02:27:22;;;;;;;0.50;0.50;;;13.80;99.90;;;;;;5084751;27;20067;-81
2022/09/11 02:29:49;;;;;;;0.50;0.50;;;13.80;99.90;;;;;;5079759;27;20300;-81
2022/09/11 02:32:17;;;;;;;0.50;0.50;;;13.80;99.90;;;;;;5070378;27;20978;-81
2022/09/11 02:34:45;;;;;;;0.50;0.50;;;13.60;99.90;;;;;;5087065;27;20142;-81
2022/09/11 02:37:33;;;;;;;0.50;0.50;;;13.80;99.90;;;;;;5067399;27;20082;-81
2022/09/11 02:40:09;;;;;;;0.50;0.50;;;13.70;99.90;;;;;;5084752;27;20054;-81
2022/09/11 02:43:07;;;;;;;0.50;0.50;;;13.70;99.90;;;;;;5106093;27;20515;-81
2022/09/11 02:45:54;;;;;;;0.50;0.50;;;13.70;99.90;;;;;;5072768;27;20055;-81
2022/09/11 02:48:56;;;;;;;0.50;0.50;;;13.70;99.90;;;;;;5055708;27;20055;-81
2022/09/11 02:51:50;;;;;;;0.40;0.40;;;13.70;99.90;;;;;;5086538;27;20039;-81
2022/09/11 02:54:43;;;;;;;0.50;0.50;;;13.70;99.90;;;;;;5050712;27;20142;-81
2022/09/11 02:57:27;;;;;;;0.40;0.40;;;13.60;99.90;;;;;;5085077;27;20082;-81
2022/09/11 03:00:00;;;;;;;0.40;0.40;;;13.50;99.90;;;;;;5084897;27;20035;-80
2022/09/11 03:02:32;;;;;;;0.50;0.50;;;13.50;99.90;;;;;;5082955;27;20107;-81
2022/09/11 03:04:58;;;;;;;0.43;0.43;;;13.50;99.90;;;;;;5081720;27;20387;-81
2022/09/11 03:07:24;;;;;;;0.50;0.50;;;13.50;99.90;;;;;;5067489;27;20736;-81
2022/09/11 03:09:51;;;;;;;0.50;0.50;;;13.40;99.90;;;;;;5081278;27;20075;-81
2022/09/11 03:12:17;;;;;;;0.40;0.40;;;13.50;99.90;;;;;;5084747;27;20153;-81
2022/09/11 03:14:43;;;;;;;0.47;0.47;;;13.50;99.90;;;;;;5084874;27;20250;-81
2022/09/11 03:17:09;;;;;;;0.43;0.43;;;13.50;99.90;;;;;;5083409;27;23275;-82
2022/09/11 03:19:34;;;;;;;0.40;0.40;;;13.40;99.90;;;;;;5083667;27;20043;-81
2022/09/11 03:22:01;;;;;;;0.50;0.50;;;13.40;99.90;;;;;;5082754;27;20047;-81
2022/09/11 03:24:27;;;;;;;0.40;0.40;;;13.40;99.90;;;;;;5087325;27;20055;-81
2022/09/11 03:26:53;;;;;;;0.40;0.40;;;13.40;99.90;;;;;;5103511;27;20047;-81
2022/09/11 03:29:19;;;;;;;0.50;0.50;;;13.40;99.90;;;;;;5086665;27;20709;-81
2022/09/11 03:31:46;;;;;;;0.50;0.50;;;13.40;99.90;;;;;;5084127;27;20535;-81
2022/09/11 03:34:12;;;;;;;0.50;0.50;;;13.40;99.90;;;;;;5083174;27;20131;-81
2022/09/11 03:36:39;;;;;;;0.50;0.50;;;13.40;99.90;;;;;;5098825;27;20409;-81
2022/09/11 03:39:04;;;;;;;0.47;0.47;;;13.40;99.90;;;;;;5086599;27;20570;-81
2022/09/11 03:41:30;;;;;;;0.40;0.40;;;13.30;99.90;;;;;;5105159;27;20062;-81
2022/09/11 03:43:56;;;;;;;0.50;0.50;;;13.40;99.90;;;;;;5081834;27;20871;-81
2022/09/11 03:46:23;;;;;;;0.50;0.50;;;13.30;99.90;;;;;;5081490;27;20097;-82
2022/09/11 03:48:48;;;;;;;0.40;0.40;;;13.30;99.90;;;;;;5083345;27;20051;-82
2022/09/11 03:51:16;;;;;;;0.50;0.50;;;13.20;99.90;;;;;;5083333;27;20058;-81
2022/09/11 03:53:43;;;;;;;0.50;0.50;;;13.20;99.90;;;;;;5060536;27;20495;-81
2022/09/11 03:56:09;;;;;;;0.50;0.50;;;13.10;99.90;;;;;;5082549;27;20040;-82
2022/09/11 03:58:35;;;;;;;0.40;0.40;;;13.20;99.90;;;;;;5079291;27;20055;-81
2022/09/11 04:01:08;;;;;;;0.50;0.50;;;13.10;99.90;;;;;;5080666;27;20047;-81
2022/09/11 04:03:33;;;;;;;0.50;0.50;;;13.20;99.90;;;;;;5081025;27;20077;-81
2022/09/11 04:06:01;;;;;;;0.50;0.50;;;13.10;99.90;;;;;;5081778;27;20043;-81
2022/09/11 04:08:32;;;;;;;0.40;0.40;;;13.20;99.90;;;;;;5082798;27;20074;-80
2022/09/11 04:10:59;;;;;;;0.50;0.50;;;13.10;99.90;;;;;;5081030;27;20039;-81
2022/09/11 04:13:30;;;;;;;0.50;0.50;;;13.10;99.90;;;;;;5101584;27;20686;-81
2022/09/11 04:16:08;;;;;;;0.50;0.50;;;13.10;99.90;;;;;;5099275;27;20131;-80
2022/09/11 04:18:36;;;;;;;0.50;0.50;;;13.10;99.90;;;;;;5082906;27;20048;-80
2022/09/11 04:21:07;;;;;;;0.50;0.50;;;13.10;99.90;;;;;;5062554;27;20051;-80
2022/09/11 04:23:33;;;;;;;0.40;0.40;;;13.00;99.90;;;;;;5084258;27;20514;-80
2022/09/11 04:25:59;;;;;;;0.50;0.50;;;13.10;99.90;;;;;;5101584;27;20946;-80
2022/09/11 04:28:30;;;;;;;0.50;0.50;;;13.10;99.90;;;;;;5092100;27;20134;-80
2022/09/11 04:31:00;;;;;;;0.50;0.50;;;13.10;99.90;;;;;;5079401;27;20049;-81
2022/09/11 04:33:26;;;;;;;0.50;0.50;;;13.20;99.90;;;;;;5083399;27;20062;-81
2022/09/11 04:35:51;;;;;;;0.50;0.50;;;13.20;99.90;;;;;;5096035;27;20043;-80
2022/09/11 04:38:17;;;;;;;0.50;0.50;;;13.20;99.90;;;;;;5083448;27;20048;-81
2022/09/11 04:40:44;;;;;;;0.50;0.50;;;13.20;99.90;;;;;;5083902;27;20094;-80
2022/09/11 04:43:10;;;;;;;0.40;0.40;;;13.20;99.90;;;;;;5065219;27;20740;-81
2022/09/11 04:45:37;;;;;;;0.50;0.50;;;13.20;99.90;;;;;;5081771;27;20042;-80
2022/09/11 04:48:03;;;;;;;0.50;0.50;;;13.20;99.90;;;;;;5063694;27;20050;-80
2022/09/11 04:50:30;;;;;;;0.50;0.50;;;13.30;99.90;;;;;;5065742;27;20051;-81
2022/09/11 04:52:57;;;;;;;0.50;0.50;;;13.30;99.90;;;;;;5100777;27;20074;-81
2022/09/11 04:55:23;;;;;;;0.50;0.50;;;13.20;99.90;;;;;;5079448;27;20556;-81
2022/09/11 04:57:49;;;;;;;0.40;0.40;;;13.20;99.90;;;;;;5082581;27;20378;-80
2022/09/11 05:00:15;;;;;;;0.50;0.50;;;13.30;99.90;;;;;;5081958;27;20636;-80
2022/09/11 05:02:40;;;;;;;0.50;0.50;;;13.20;99.90;;;;;;5081091;27;20047;-81
2022/09/11 05:05:08;;;;;;;0.47;0.47;;;13.20;99.90;;;;;;5080475;27;20042;-80
2022/09/11 05:07:34;;;;;;;0.40;0.40;;;13.20;99.90;;;;;;5081228;27;20077;-80
2022/09/11 05:10:01;;;;;;;0.50;0.50;;;13.20;99.90;;;;;;5099600;27;21027;-80
2022/09/11 05:12:30;;;;;;;0.50;0.50;;;13.20;99.90;;;;;;5082908;27;20047;-81
2022/09/11 05:14:56;;;;;;;0.50;0.50;;;13.20;99.90;;;;;;5081053;27;20114;-80
2022/09/11 05:17:22;;;;;;;0.50;0.50;;;13.20;99.90;;;;;;5100259;27;20047;-80
2022/09/11 05:19:48;;;;;;;0.50;0.50;;;13.10;99.90;;;;;;5081475;27;20043;-80
2022/09/11 05:22:14;;;;;;;0.43;0.43;;;13.10;99.90;;;;;;5085062;27;20519;-80
2022/09/11 05:24:40;;;;;;;0.43;0.43;;;13.20;99.90;;;;;;5084065;27;20802;-80
2022/09/11 05:27:07;;;;;;;0.50;0.50;;;13.20;99.90;;;;;;5065995;27;20620;-80
2022/09/11 05:29:32;;;;;;;0.50;0.50;;;13.20;99.90;;;;;;5083426;27;20065;-80
2022/09/11 05:31:58;;;;;;;0.50;0.50;;;13.30;99.90;;;;;;5075159;27;20047;-81
2022/09/11 05:34:29;;;;;;;0.50;0.50;;;13.30;99.90;;;;;;5077898;28;20039;-80
2022/09/11 05:37:01;;;;;;;0.50;0.50;;;13.30;99.90;;;;;;5069847;28;20052;-80
2022/09/11 05:39:27;;;;;;;0.45;0.45;;;13.40;99.90;;;;;;5101948;28;20043;-80
2022/09/11 05:41:54;;;;;;;0.50;0.50;;;13.40;99.90;;;;;;5077762;28;20063;-80
2022/09/11 05:44:20;;;;;;;0.40;0.40;;;13.40;99.90;;;;;;5081052;28;20047;-80
2022/09/11 05:46:47;;;;;;;0.40;0.40;;;13.50;99.90;;;;;;5079673;28;20405;-80
2022/09/11 05:49:13;;;;;;;0.40;0.40;;;13.50;99.90;;;;;;5080229;28;20595;-80
2022/09/11 05:51:40;;;;;;;0.40;0.40;;;13.60;99.90;;;;;;5079538;28;20028;-81
2022/09/11 05:54:06;;;;;;;0.40;0.40;;;13.60;99.90;;;;;;5077939;28;20403;-80
2022/09/11 05:56:31;;;;;;;0.40;0.40;;;13.70;99.90;;;;;;5080293;28;20855;-80
2022/09/11 05:58:57;;;;;;;0.50;0.50;;;13.70;99.90;;;;;;5076635;28;20055;-80
2022/09/11 06:01:25;;;;;;;0.50;0.50;;;13.70;99.90;;;;;;5079663;28;20452;-80
2022/09/11 06:03:51;;;;;;;0.50;0.50;;;13.80;99.90;;;;;;5078120;28;20567;-81
2022/09/11 06:06:19;;;;;;;0.50;0.50;;;13.90;99.90;;;;;;5081091;28;20118;-81
2022/09/11 06:08:46;;;;;;;0.40;0.40;;;14.00;99.90;;;;;;5079906;28;20044;-80
2022/09/11 06:11:14;;;;;;;0.40;0.40;;;14.10;99.90;;;;;;5078030;28;20047;-80
2022/09/11 06:13:43;;;;;;;0.40;0.40;;;14.30;99.90;;;;;;5076317;28;20062;-80
2022/09/11 06:16:10;;;;;;;0.40;0.40;;;14.40;99.90;;;;;;5079968;28;20047;-80
2022/09/11 06:18:36;;;;;;;0.50;0.50;;;14.60;99.90;;;;;;5081783;28;20059;-80
2022/09/11 06:21:08;;;;;;;0.50;0.50;;;14.90;99.90;;;;;;5078745;28;20408;-81
2022/09/11 06:23:38;;;;;;;0.50;0.50;;;15.00;99.90;;;;;;5080160;28;20044;-80
2022/09/11 06:26:09;;;;;;;0.43;0.43;;;15.30;99.90;;;;;;5076604;28;20511;-80
2022/09/11 06:28:36;;;;;;;0.40;0.40;;;15.40;99.90;;;;;;5078457;28;20714;-80
2022/09/11 06:31:03;;;;;;;0.50;0.50;;;15.50;99.90;;;;;;5075302;28;20083;-80
2022/09/11 06:33:35;;;;;;;0.40;0.40;;;15.60;99.90;;;;;;5080032;28;20127;-80
2022/09/11 06:36:03;;;;;;;0.40;0.40;;;15.70;99.90;;;;;;5079342;28;20940;-81
2022/09/11 06:38:30;;;;;;;0.40;0.40;;;15.70;99.90;;;;;;5080246;28;20047;-80
2022/09/11 06:40:58;;;;;;;0.40;0.40;;;15.80;99.90;;;;;;5081080;28;20051;-81
2022/09/11 06:43:24;;;;;;;0.40;0.40;;;15.90;99.90;;;;;;5077776;28;20054;-80
2022/09/11 06:45:50;;;;;;;0.40;0.40;;;16.00;99.90;;;;;;5080308;28;20970;-81
2022/09/11 06:48:18;;;;;;;0.40;0.40;;;16.20;99.90;;;;;;5080944;28;20040;-79
2022/09/11 06:50:44;;;;;;;0.40;0.40;;;16.30;99.90;;;;;;5064795;28;20051;-79
2022/09/11 06:53:11;;;;;;;0.40;0.40;;;16.40;99.90;;;;;;5077316;28;20127;-80
2022/09/11 06:55:40;;;;;;;0.40;0.40;;;16.50;99.90;;;;;;5079360;28;20048;-80
2022/09/11 06:58:09;;;;;;;0.40;0.40;;;16.60;99.90;;;;;;5054712;28;20048;-80
2022/09/11 07:00:35;;;;;;;0.40;0.40;;;16.70;99.90;;;;;;5082067;28;20048;-81
2022/09/11 07:03:02;;;;;;;0.40;0.40;;;16.90;99.90;;;;;;5082469;28;21182;-80
2022/09/11 07:05:28;;;;;;;0.40;0.40;;;17.00;99.90;;;;;;5065482;28;20043;-80
2022/09/11 07:07:55;;;;;;;0.40;0.40;;;16.90;99.90;;;;;;5081333;28;20523;-79
2022/09/11 07:10:23;;;;;;;0.40;0.40;;;17.10;99.90;;;;;;5079454;28;20051;-79
2022/09/11 07:12:52;;;;;;;0.40;0.40;;;17.20;99.90;;;;;;5081980;28;20050;-80
2022/09/11 07:15:18;;;;;;;0.40;0.40;;;17.40;99.90;;;;;;5081753;28;20488;-80
2022/09/11 07:17:43;;;;;;;0.40;0.40;;;17.40;99.90;;;;;;5083266;28;20097;-80
2022/09/11 07:20:16;;;;;;;0.40;0.40;;;17.50;99.90;;;;;;5079607;28;20045;-79
2022/09/11 07:22:44;;;;;;;0.40;0.40;;;17.70;99.90;;;;;;5078444;28;20063;-80
2022/09/11 07:25:10;;;;;;;0.40;0.40;;;17.70;99.90;;;;;;5078191;28;20496;-80
2022/09/11 07:27:43;;;;;;;0.38;0.38;;;17.80;99.90;;;;;;5080034;28;20049;-79
2022/09/11 07:30:10;;;;;;;0.40;0.40;;;17.90;99.90;;;;;;5081938;28;20039;-80
2022/09/11 07:32:36;;;;;;;0.40;0.40;;;17.70;99.90;;;;;;5084347;28;20043;-81
2022/09/11 07:35:03;;;;;;;0.40;0.40;;;17.70;99.90;;;;;;5082513;28;20075;-79
2022/09/11 07:37:29;;;;;;;0.40;0.40;;;17.80;99.90;;;;;;5085093;28;20058;-80
2022/09/11 07:39:54;;;;;;;0.40;0.40;;;17.80;99.90;;;;;;5082753;28;20039;-82
2022/09/11 07:42:20;;;;;;;0.40;0.40;;;18.00;99.90;;;;;;5063719;28;20056;-80
2022/09/11 07:44:46;;;;;;;0.40;0.40;;;17.90;99.90;;;;;;5083924;28;20458;-81
2022/09/11 07:47:12;;;;;;;0.40;0.40;;;18.10;99.90;;;;;;5079447;28;20068;-81
2022/09/11 07:49:37;;;;;;;0.40;0.40;;;18.20;99.90;;;;;;5083228;28;21050;-80
2022/09/11 07:52:03;;;;;;;0.40;0.40;;;18.20;99.90;;;;;;5078673;28;20042;-80
2022/09/11 07:54:29;;;;;;;0.40;0.40;;;18.30;99.90;;;;;;5079524;28;20570;-80
2022/09/11 07:56:56;;;;;;;0.40;0.40;;;18.40;99.90;;;;;;5069905;28;20395;-81
2022/09/11 07:59:23;;;;;;;0.40;0.40;;;18.30;99.90;;;;;;5082771;28;20543;-80
2022/09/11 08:01:49;;;;;;;0.40;0.40;;;18.50;99.90;;;;;;5081780;28;20039;-81
2022/09/11 08:04:15;;;;;;;0.40;0.40;;;18.70;99.90;;;;;;5075707;28;20048;-81
2022/09/11 08:06:41;;;;;;;0.40;0.40;;;18.70;99.90;;;;;;5073981;28;20503;-80
2022/09/11 08:09:11;;;;;;;0.40;0.40;;;18.90;99.90;;;;;;5067277;28;20416;-81
2022/09/11 08:11:40;;;;;;;0.40;0.40;;;18.90;99.90;;;;;;5072920;28;20055;-81
2022/09/11 08:14:06;;;;;;;0.30;0.30;;;19.10;99.90;;;;;;5077970;28;20039;-82
2022/09/11 08:16:34;;;;;;;0.40;0.40;;;19.20;99.90;;;;;;5068674;28;20115;-83
2022/09/11 08:19:01;;;;;;;0.40;0.40;;;19.40;99.90;;;;;;5059486;28;20047;-81
2022/09/11 08:21:27;;;;;;;0.30;0.30;;;19.50;99.90;;;;;;5066217;28;20743;-83
2022/09/11 08:23:53;;;;;;;0.40;0.40;;;19.60;99.90;;;;;;5046505;28;20047;-82
2022/09/11 08:26:25;;;;;;;0.30;0.30;;;19.80;99.90;;;;;;5056035;28;20125;-80
2022/09/11 08:28:52;;;;;;;0.40;0.40;;;20.00;99.90;;;;;;5066145;28;20051;-80
2022/09/11 08:31:20;;;;;;;0.40;0.40;;;20.00;99.90;;;;;;5067933;28;20043;-80
2022/09/11 08:33:46;;;;;;;0.32;0.32;;;20.00;99.90;;;;;;5062740;28;20036;-81
2022/09/11 08:36:15;;;;;;;0.40;0.40;;;19.80;99.90;;;;;;5046881;28;20914;-81
2022/09/11 08:38:42;;;;;;;0.30;0.30;;;19.60;99.90;;;;;;5066479;28;20048;-81
2022/09/11 08:41:25;;;;;;;0.38;0.38;;;19.50;99.90;;;;;;5067865;28;20076;-80
2022/09/11 08:44:08;;;;;;;0.40;0.40;;;19.80;99.90;;;;;;5076150;27;20085;-80
2022/09/11 08:47:05;;;;;;;0.30;0.30;;;19.90;99.90;;;;;;5049073;28;20114;-81
2022/09/11 08:49:38;;;;;;;0.35;0.35;;;19.50;99.90;;;;;;5066682;28;20047;-80
2022/09/11 08:52:05;;;;;;;0.40;0.40;;;19.60;99.90;;;;;;5066799;28;20046;-80
2022/09/11 08:54:37;;;;;;;0.40;0.40;;;19.70;99.90;;;;;;5032340;28;20055;-80
2022/09/11 08:57:16;;;;;;;0.40;0.40;;;20.10;99.90;;;;;;5045291;28;20052;-81
2022/09/11 08:59:55;;;;;;;0.40;0.40;;;20.00;99.90;;;;;;5045325;28;20059;-79
2022/09/11 09:02:45;;;;;;;0.40;0.40;;;19.40;99.90;;;;;;5049249;28;20066;-80
2022/09/11 09:05:14;;;;;;;0.30;0.30;;;19.30;99.90;;;;;;5061118;28;20127;-79
2022/09/11 09:08:01;;;;;;;0.40;0.40;;;19.60;99.90;;;;;;5063364;28;20053;-79
2022/09/11 09:10:26;;;;;;;0.40;0.40;;;19.80;99.90;;;;;;5046434;28;20056;-80
2022/09/11 09:13:01;;;;;;;0.40;0.40;;;19.80;99.90;;;;;;5030045;28;20112;-80
2022/09/11 09:16:02;;;;;;;0.30;0.30;;;19.80;99.90;;;;;;5048053;28;20720;-80
2022/09/11 09:18:52;;;;;;;0.40;0.40;;;19.80;99.90;;;;;;5015737;28;20044;-81
2022/09/11 09:21:58;;;;;;;0.30;0.30;;;20.10;99.90;;;;;;4989211;28;20087;-80
2022/09/11 09:24:26;;;;;;;0.30;0.30;;;20.70;99.90;;;;;;5033215;28;20897;-81
2022/09/11 09:26:55;;;;;;;0.30;0.30;;;21.00;99.90;;;;;;5042851;28;20536;-81
2022/09/11 09:29:23;;;;;;;0.30;0.30;;;21.40;99.90;;;;;;5064563;28;20075;-80
2022/09/11 09:31:56;;;;;;;0.30;0.30;;;21.50;99.90;;;;;;5062304;28;20036;-81
2022/09/11 09:34:26;;;;;;;0.30;0.30;;;21.50;99.90;;;;;;5046292;28;20055;-80
2022/09/11 09:37:03;;;;;;;0.30;0.30;;;21.50;99.90;;;;;;5062508;28;20058;-79
2022/09/11 09:39:30;;;;;;;0.30;0.30;;;21.60;99.90;;;;;;5058978;28;20052;-80
2022/09/11 09:42:21;;;;;;;0.30;0.30;;;22.10;99.90;;;;;;5019546;28;20047;-79
2022/09/11 09:45:00;;;;;;;0.40;0.40;;;21.90;99.90;;;;;;5040273;28;20142;-80
2022/09/11 09:47:26;;;;;;;0.30;0.30;;;21.10;99.90;;;;;;5040539;28;20101;-80
2022/09/11 09:49:52;;;;;;;0.30;0.30;;;21.20;99.90;;;;;;5037004;28;20055;-80
2022/09/11 09:52:33;;;;;;;0.30;0.30;;;20.80;99.90;;;;;;5058715;28;20044;-79
2022/09/11 09:55:00;;;;;;;0.30;0.30;;;20.60;99.90;;;;;;5044774;28;20079;-80
2022/09/11 09:57:33;;;;;;;0.30;0.30;;;20.30;99.90;;;;;;5058437;28;20052;-80
2022/09/11 10:00:08;;;;;;;0.30;0.30;;;20.60;99.90;;;;;;5043485;28;20047;-79
2022/09/11 10:02:55;;;;;;;0.30;0.30;;;20.90;99.90;;;;;;5053699;28;20046;-81
2022/09/11 10:05:40;;;;;;;0.30;0.30;;;21.70;99.90;;;;;;5053102;28;20043;-80
2022/09/11 10:08:24;;;;;;;0.40;0.40;;;21.70;99.90;;;;;;5054146;28;20112;-81
2022/09/11 10:10:59;;;;;;;0.30;0.30;;;22.20;99.90;;;;;;5066009;28;20054;-80
2022/09/11 10:13:28;;;;;;;0.30;0.30;;;22.40;99.90;;;;;;5063149;28;20054;-81
2022/09/11 10:15:59;;;;;;;0.40;0.40;;;22.30;99.90;;;;;;5057858;28;20044;-81
2022/09/11 10:18:28;;;;;;;0.30;0.30;;;22.20;99.90;;;;;;5064855;28;20055;-80
2022/09/11 10:21:12;;;;;;;0.30;0.30;;;22.10;99.90;;;;;;5065371;28;20090;-81
2022/09/11 10:23:49;;;;;;;;;;;22.40;99.90;;;;;;5065726;28;20765;-80
2022/09/11 10:26:27;;;;;;;0.30;0.30;;;22.90;99.90;;;;;;5055318;28;19940;-81
2022/09/11 10:28:55;;;;;;;0.30;0.30;;;22.50;99.90;;;;;;5057437;28;20186;-80
2022/09/11 10:31:21;;;;;;;0.43;0.43;;;23.00;99.90;;;;;;5055955;28;20042;-80
2022/09/11 10:33:57;;;;;;;0.30;0.30;;;23.40;99.90;;;;;;5059434;28;20059;-80
2022/09/11 10:36:28;;;;;;;0.30;0.30;;;23.90;99.90;;;;;;5059815;28;20357;-82
2022/09/11 10:38:59;;;;;;;0.30;0.30;;;24.10;99.90;;;;;;5056962;28;20051;-81
2022/09/11 10:41:27;;;;;;;0.30;0.30;;;23.70;99.90;;;;;;5049347;28;20063;-80
2022/09/11 10:44:01;;;;;;;0.30;0.30;;;23.40;99.90;;;;;;5036092;28;20919;-79
2022/09/11 10:47:11;;;;;;;0.30;0.30;;;22.50;99.90;;;;;;5038458;28;20051;-80
2022/09/11 10:49:37;;;;;;;0.40;0.40;;;20.90;99.90;;;;;;5017831;28;20241;-81
2022/09/11 10:52:08;;;;;;;0.30;0.30;;;20.30;99.90;;;;;;5058104;28;20039;-80
2022/09/11 10:54:57;;;;;;;0.40;0.40;;;19.90;99.90;;;;;;5032873;28;20060;-80
2022/09/11 10:57:44;;;;;;;0.30;0.30;;;19.70;99.90;;;;;;5057662;28;20924;-80
2022/09/11 11:00:13;;;;;;;0.30;0.30;;;19.40;99.90;;;;;;5063447;28;20933;-81
2022/09/11 11:03:05;;;;;;;0.30;0.30;;;19.50;99.90;;;;;;5038831;28;20054;-80
2022/09/11 11:05:58;;;;;;;0.40;0.40;;;19.20;99.90;;;;;;4988177;28;20066;-80
2022/09/11 11:09:08;;;;;;;0.32;0.32;;;19.00;99.90;;;;;;5036706;28;20154;-82
2022/09/11 11:12:04;;;;;;;0.40;0.40;;;18.80;99.90;;;;;;5034621;28;20478;-80
2022/09/11 11:15:29;;;;;;;0.30;0.30;;;18.80;99.90;;;;;;5034185;28;20050;-80
2022/09/11 11:18:30;;;;;;;0.40;0.40;;;19.00;99.90;;;;;;4939876;28;20126;-80
2022/09/11 11:21:22;;;;;;;0.40;0.40;;;18.80;99.90;;;;;;4928267;28;20054;-82
2022/09/11 11:23:53;;;;;;;0.40;0.40;;;18.90;99.90;;;;;;5026133;28;20065;-81
2022/09/11 11:26:35;;;;;;;0.40;0.40;;;19.00;99.90;;;;;;5038194;28;20050;-80
2022/09/11 11:29:28;;;;;;;0.40;0.40;;;19.40;99.90;;;;;;5040057;28;20079;-81
2022/09/11 11:32:08;;;;;;;0.40;0.40;;;19.90;99.90;;;;;;5032634;28;20272;-81
2022/09/11 11:35:00;;;;;;;0.40;0.40;;;20.70;99.90;;;;;;5038857;28;20055;-80
2022/09/11 11:37:39;;;;;;;0.40;0.40;;;20.80;99.90;;;;;;5035488;28;20047;-81
2022/09/11 11:40:28;;;;;;;0.40;0.40;;;21.30;99.90;;;;;;5034003;28;20528;-81
2022/09/11 11:43:06;;;;;;;0.40;0.40;;;21.70;99.90;;;;;;5033089;28;20063;-79
2022/09/11 11:45:56;;;;;;;0.40;0.40;;;21.40;99.90;;;;;;5034104;28;20759;-82
2022/09/11 11:48:28;;;;;;;0.30;0.30;;;21.20;99.90;;;;;;5037959;28;20055;-80
2022/09/11 11:51:01;;;;;;;0.40;0.40;;;20.60;99.90;;;;;;5014224;28;20048;-81
2022/09/11 11:53:33;;;;;;;0.38;0.38;;;21.30;99.90;;;;;;4994221;28;20047;-82
2022/09/11 11:56:19;;;;;;;0.40;0.40;;;21.90;99.90;;;;;;5038504;28;20240;-80
2022/09/11 11:58:52;;;;;;;0.80;0.50;;;21.90;99.90;;;;;;5055611;28;20392;-83
2022/09/11 12:01:27;;;;;;;0.30;0.30;;;21.90;99.90;;;;;;5037056;28;20106;-82
2022/09/11 12:04:08;;;;;;;0.35;0.35;;;21.40;99.90;;;;;;5059294;28;20052;-81
2022/09/11 12:06:34;;;;;;;0.30;0.30;;;21.70;99.90;;;;;;5037728;28;20044;-80
2022/09/11 12:09:02;;;;;;;0.40;0.40;;;22.30;99.90;;;;;;5045441;28;20048;-78
2022/09/11 12:11:30;;;;;;;0.30;0.30;;;21.80;99.90;;;;;;5047757;28;20051;-81
2022/09/11 12:13:57;;;;;;;0.30;0.30;;;21.90;99.90;;;;;;5057075;28;20043;-81
2022/09/11 12:16:31;;;;;;;0.30;0.30;;;22.10;99.90;;;;;;5046663;28;20146;-82
2022/09/11 12:19:18;;;;;;;0.30;0.30;;;22.80;99.90;;;;;;5039846;28;20134;-82
2022/09/11 12:21:53;;;;;;;0.30;0.30;;;22.80;99.90;;;;;;5047853;28;20063;-80
2022/09/11 12:24:43;;;;;;;0.30;0.30;;;23.00;99.90;;;;;;5051744;28;20047;-80
2022/09/11 12:27:35;;;;;;;0.30;0.30;;;22.30;99.90;;;;;;5045369;28;20131;-80
2022/09/11 12:30:27;;;;;;;0.30;0.30;;;22.20;99.90;;;;;;5048572;28;20702;-79
2022/09/11 12:32:57;;;;;;;0.30;0.30;;;23.00;99.90;;;;;;5065992;28;20403;-81
2022/09/11 12:35:38;;;;;;;0.30;0.30;;;23.30;99.90;;;;;;5050579;28;20043;-82
2022/09/11 12:38:07;;;;;;;0.30;0.30;;;23.70;99.90;;;;;;5069262;28;20046;-81
2022/09/11 12:40:45;;;;;;;0.30;0.30;;;24.10;99.90;;;;;;5048234;28;20112;-79
2022/09/11 12:43:48;;;;;;;0.30;0.30;;;24.20;99.90;;;;;;5024750;28;20047;-81
2022/09/11 12:46:20;;;;;;;0.30;0.30;;;24.50;99.90;;;;;;4971075;28;20055;-80
2022/09/11 12:48:52;;;;;;;0.30;0.30;;;24.40;99.90;;;;;;5055864;28;20039;-82
2022/09/11 12:51:32;;;;;;;0.30;0.30;;;24.30;99.90;;;;;;5036339;28;20056;-81
2022/09/11 12:54:22;;;;;;;0.30;0.30;;;23.80;99.90;;;;;;5049305;28;20488;-80
2022/09/11 12:56:57;;;;;;;0.30;0.30;;;23.20;99.90;;;;;;5052925;28;20214;-82
2022/09/11 12:59:28;;;;;;;0.30;0.30;;;24.30;99.90;;;;;;5050227;28;20043;-82
2022/09/11 13:01:56;;;;;;;0.32;0.32;;;24.70;99.90;;;;;;5048935;28;20052;-82
2022/09/11 13:04:25;;;;;;;0.30;0.30;;;25.00;99.90;;;;;;5036879;28;20147;-83
2022/09/11 13:07:03;;;;;;;0.30;0.30;;;24.80;99.90;;;;;;5035416;28;20258;-83
2022/09/11 13:09:40;;;;;;;0.30;0.30;;;25.00;99.90;;;;;;5035937;28;20043;-80
2022/09/11 13:12:24;;;;;;;0.30;0.30;;;25.10;99.90;;;;;;5038470;28;20047;-80
2022/09/11 13:14:51;;;;;;;;;;;24.40;99.90;;;;;;5061684;28;20047;-80
2022/09/11 13:17:29;;;;;;;0.30;0.30;;;24.00;99.90;;;;;;5035189;28;19931;-81